Time;durP1;ratioP1;P1;durP2;ratioP2;P2;SDS_P1;SDS_P2;PMS_P1;PMS_P2;Temp;Humidity;BMP_temperature;BMP_pressure;BME280_temperature;BME280_humidity;BME280_pressure;Samples;Min_cycle;Max_cycle;Signal;HPM_P1;HPM_P2
2022/03/02 00:02:16;;;;;;;92.43;41.57;;;;;;;-3.04;81.69;101998.06;3388444;84;99281;-89
2022/03/02 00:07:17;;;;;;;91.57;38.60;;;;;;;-3.06;81.80;102004.76;3479597;83;99202;-89
2022/03/02 00:12:18;;;;;;;89.50;35.13;;;;;;;-3.13;81.51;102000.89;3390705;85;99248;-89
2022/03/02 00:17:19;;;;;;;73.40;31.43;;;;;;;-3.17;81.57;101996.27;3446018;83;99421;-89
2022/03/02 00:22:20;;;;;;;82.77;36.57;;;;;;;-3.18;82.03;101997.33;3436438;82;99364;-90
2022/03/02 00:27:25;;;;;;;85.33;35.07;;;;;;;-3.17;82.56;101990.33;3465068;83;99579;-90
2022/03/02 00:32:26;;;;;;;81.10;35.38;;;;;;;-3.19;82.52;101979.52;3458626;84;99208;-89
2022/03/02 00:37:26;;;;;;;84.13;37.83;;;;;;;-3.26;82.14;101977.03;3460067;83;99137;-89
2022/03/02 00:42:29;;;;;;;77.07;35.60;;;;;;;-3.30;82.59;101983.14;3457201;84;99212;-89
2022/03/02 00:47:31;;;;;;;80.17;34.50;;;;;;;-3.34;83.01;101976.09;3461251;81;99085;-88
2022/03/02 00:52:33;;;;;;;93.17;37.40;;;;;;;-3.40;82.67;101970.36;3458197;82;99436;-89
2022/03/02 00:57:34;;;;;;;90.17;35.60;;;;;;;-3.46;82.74;101963.27;3473235;83;99640;-89
2022/03/02 01:02:35;;;;;;;81.97;37.27;;;;;;;-3.51;82.81;101956.98;3461707;84;99419;-89
2022/03/02 01:07:36;;;;;;;85.10;34.37;;;;;;;-3.56;83.48;101948.32;3441543;81;99648;-89
2022/03/02 01:12:37;;;;;;;88.20;37.20;;;;;;;-3.59;83.11;101944.80;3433021;84;99368;-89
2022/03/02 01:17:39;;;;;;;80.67;38.10;;;;;;;-3.64;83.38;101933.95;3485542;82;98812;-89
2022/03/02 01:22:40;;;;;;;87.37;37.20;;;;;;;-3.67;83.43;101926.37;3456947;84;99159;-88
2022/03/02 01:27:41;;;;;;;82.90;37.47;;;;;;;-3.72;83.71;101928.98;3494542;82;99231;-89
2022/03/02 01:32:42;;;;;;;85.80;35.23;;;;;;;-3.79;83.73;101927.00;3420299;83;99737;-88
2022/03/02 01:37:43;;;;;;;80.63;33.87;;;;;;;-3.82;83.90;101933.41;3492827;82;99222;-89
2022/03/02 01:42:44;;;;;;;80.03;35.87;;;;;;;-3.90;83.48;101938.66;3486198;83;99304;-89
2022/03/02 01:47:45;;;;;;;89.83;37.17;;;;;;;-3.99;83.74;101940.12;3465994;84;26208;-88
2022/03/02 01:52:49;;;;;;;84.03;36.17;;;;;;;-3.99;84.65;101929.36;3467674;83;99186;-88
2022/03/02 01:57:51;;;;;;;86.00;35.33;;;;;;;-4.00;84.97;101921.53;3483825;83;99585;-89
2022/03/02 02:02:52;;;;;;;83.58;34.48;;;;;;;-4.02;84.76;101912.39;3435391;84;99181;-88
2022/03/02 02:07:53;;;;;;;85.07;36.00;;;;;;;-4.03;84.79;101908.59;3431619;83;99274;-89
2022/03/02 02:12:54;;;;;;;85.90;35.33;;;;;;;-4.06;84.38;101903.69;3444157;84;99174;-89
2022/03/02 02:17:56;;;;;;;89.77;36.67;;;;;;;-4.09;85.24;101899.62;3460457;84;26519;-88
2022/03/02 02:22:57;;;;;;;81.57;35.70;;;;;;;-4.12;85.01;101891.23;3476102;82;99338;-87
2022/03/02 02:27:59;;;;;;;81.13;35.20;;;;;;;-4.14;85.05;101887.44;3471263;83;99594;-88
2022/03/02 02:33:00;;;;;;;63.48;29.80;;;;;;;-4.18;84.62;101874.23;3457236;83;99200;-88
2022/03/02 02:38:01;;;;;;;65.77;28.63;;;;;;;-4.21;85.20;101866.64;3460674;82;99610;-88
2022/03/02 02:43:03;;;;;;;60.93;25.77;;;;;;;-4.23;84.95;101873.31;3472529;82;99279;-88
2022/03/02 02:48:04;;;;;;;69.37;28.13;;;;;;;-4.31;84.46;101864.33;3428266;84;26223;-89
2022/03/02 02:53:09;;;;;;;68.00;28.23;;;;;;;-4.38;84.85;101864.48;3467558;83;99192;-88
2022/03/02 02:58:11;;;;;;;60.50;28.40;;;;;;;-4.42;84.92;101863.33;3461238;84;98977;-88
2022/03/02 03:03:13;;;;;;;67.50;29.15;;;;;;;-4.45;85.08;101854.44;3456876;83;99223;-88
2022/03/02 03:08:14;;;;;;;69.47;30.73;;;;;;;-4.42;85.58;101847.21;3454414;83;99676;-89
2022/03/02 03:13:16;;;;;;;67.80;28.87;;;;;;;-4.43;85.63;101837.53;3448283;83;99274;-89
2022/03/02 03:18:17;;;;;;;66.97;27.60;;;;;;;-4.45;85.35;101845.03;3462475;83;27459;-89
2022/03/02 03:23:18;;;;;;;69.87;29.53;;;;;;;-4.49;85.59;101837.16;3450016;82;98681;-89
2022/03/02 03:28:19;;;;;;;67.17;28.57;;;;;;;-4.53;85.25;101831.19;3449147;83;99019;-90
2022/03/02 03:33:21;;;;;;;62.17;26.93;;;;;;;-4.57;85.51;101829.52;3433718;84;99420;-89
2022/03/02 03:38:21;;;;;;;63.00;26.97;;;;;;;-4.60;86.00;101815.22;3438525;84;99311;-89
2022/03/02 03:43:22;;;;;;;69.23;28.10;;;;;;;-4.61;85.50;101810.91;3434652;82;99475;-89
2022/03/02 03:48:23;;;;;;;64.90;27.07;;;;;;;-4.63;85.66;101805.50;3442064;84;26608;-90
2022/03/02 03:53:24;;;;;;;63.47;28.50;;;;;;;-4.65;85.94;101801.70;3390757;83;99114;-90
2022/03/02 03:58:25;;;;;;;61.70;27.60;;;;;;;-4.68;85.94;101796.84;3407577;81;99472;-90
2022/03/02 04:03:26;;;;;;;55.37;24.93;;;;;;;-4.71;85.92;101789.25;3446942;83;99158;-90
2022/03/02 04:08:27;;;;;;;61.10;26.43;;;;;;;-4.79;85.32;101782.95;3459077;84;99214;-90
2022/03/02 04:13:28;;;;;;;51.43;25.00;;;;;;;-4.85;85.79;101784.45;3464528;84;99198;-90
2022/03/02 04:18:29;;;;;;;56.60;26.53;;;;;;;-4.85;86.15;101784.45;3465290;84;34115;-90
2022/03/02 04:23:30;;;;;;;54.30;24.92;;;;;;;-4.87;86.12;101783.34;3461647;83;98985;-90
2022/03/02 04:28:31;;;;;;;53.17;23.23;;;;;;;-4.95;85.80;101784.27;3474245;83;98956;-90
2022/03/02 04:33:32;;;;;;;52.93;24.03;;;;;;;-4.95;86.51;101773.53;3453155;83;99298;-90
2022/03/02 04:38:33;;;;;;;46.77;21.03;;;;;;;-5.02;85.55;101784.41;3456003;83;99652;-91
2022/03/02 04:43:34;;;;;;;54.33;24.80;;;;;;;-5.09;85.58;101786.95;3470242;83;99544;-90
2022/03/02 04:48:35;;;;;;;52.50;23.73;;;;;;;-5.10;86.81;101785.33;3461737;84;33267;-90
2022/03/02 04:53:36;;;;;;;49.20;25.10;;;;;;;-5.11;86.54;101790.41;3460567;83;99336;-90
2022/03/02 04:58:37;;;;;;;49.58;23.15;;;;;;;-5.14;86.56;101778.30;3459784;82;99399;-89
2022/03/02 05:03:38;;;;;;;50.97;23.50;;;;;;;-5.20;85.97;101787.31;3384701;85;99241;-90
2022/03/02 05:08:39;;;;;;;52.50;22.17;;;;;;;-5.21;86.50;101775.47;3474081;84;99294;-90
2022/03/02 05:13:40;;;;;;;44.70;20.97;;;;;;;-5.23;86.86;101777.05;3565907;79;99604;-89
2022/03/02 05:18:44;;;;;;;45.47;20.10;;;;;;;-5.23;87.17;101769.53;3530723;81;99493;-89
2022/03/02 05:23:43;;;;;;;87.40;31.75;;;;;;;-5.25;87.55;101767.09;3561525;81;98730;-89
2022/03/02 05:28:44;;;;;;;168.30;52.20;;;;;;;-5.26;87.48;101765.98;3555366;81;99044;-89
2022/03/02 05:33:45;;;;;;;187.47;58.47;;;;;;;-5.28;87.32;101766.24;3557976;79;99297;-89
2022/03/02 05:38:46;;;;;;;209.83;66.37;;;;;;;-5.33;87.08;101764.81;3552244;81;99961;-89
2022/03/02 05:43:48;;;;;;;148.43;53.57;;;;;;;-5.33;87.64;101761.30;3535223;81;99439;-89
2022/03/02 05:48:52;;;;;;;135.43;47.93;;;;;;;-5.37;87.02;101765.50;3556864;81;99442;-89
2022/03/02 05:53:51;;;;;;;99.93;37.27;;;;;;;-5.39;86.91;101755.04;3540183;82;99195;-89
2022/03/02 05:58:53;;;;;;;79.70;30.30;;;;;;;-5.41;87.07;101759.02;3547745;80;98936;-89
2022/03/02 06:03:54;;;;;;;72.47;29.03;;;;;;;-5.42;87.36;101761.39;3543250;81;99215;-89
2022/03/02 06:08:55;;;;;;;57.97;23.57;;;;;;;-5.43;87.38;101763.27;3560973;81;99478;-89
2022/03/02 06:13:57;;;;;;;58.73;22.80;;;;;;;-5.41;87.51;101762.49;3564402;81;99161;-89
2022/03/02 06:18:59;;;;;;;62.70;25.03;;;;;;;-5.39;87.69;101763.60;3537790;81;99134;-89
2022/03/02 06:24:00;;;;;;;61.40;26.33;;;;;;;-5.35;87.76;101766.10;3557325;81;98940;-89
2022/03/02 06:29:01;;;;;;;58.73;23.93;;;;;;;-5.35;87.38;101774.15;3548630;81;99019;-89
2022/03/02 06:34:02;;;;;;;58.57;25.30;;;;;;;-5.38;87.73;101775.95;3557982;81;99279;-87
2022/03/02 06:39:04;;;;;;;63.83;26.07;;;;;;;-5.34;88.17;101773.09;3564222;81;99211;-89
2022/03/02 06:44:29;;;;;;;64.80;26.37;;;;;;;-5.29;88.52;101767.27;3562726;79;99316;-85
2022/03/02 06:49:50;;;;;;;51.70;25.73;;;;;;;-5.22;89.32;101770.64;3575832;80;99508;-85
2022/03/02 06:54:51;;;;;;;64.63;28.47;;;;;;;-5.14;88.56;101766.22;3559999;81;99131;-85
2022/03/02 06:59:54;;;;;;;69.87;28.00;;;;;;;-5.07;89.37;101766.87;3493122;82;99614;-84
2022/03/02 07:04:57;;;;;;;69.87;30.60;;;;;;;-4.97;88.95;101767.59;3485922;84;99103;-85
2022/03/02 07:10:00;;;;;;;76.42;29.90;;;;;;;-4.89;89.70;101764.50;3484028;83;99207;-86
2022/03/02 07:15:01;;;;;;;87.17;36.47;;;;;;;-4.78;89.07;101763.61;3472914;84;99141;-86
2022/03/02 07:20:07;;;;;;;79.33;32.67;;;;;;;-4.65;89.13;101762.76;3467635;81;99224;-87
2022/03/02 07:25:27;;;;;;;79.60;33.00;;;;;;;-4.48;89.30;101754.70;3443292;85;99653;-86
2022/03/02 07:30:28;;;;;;;73.83;34.10;;;;;;;-4.26;88.94;101755.56;3568392;81;99135;-86
2022/03/02 07:35:34;;;;;;;53.03;24.83;;;;;;;-3.98;88.62;101752.17;3584365;81;98944;-86
2022/03/02 07:40:35;;;;;;;57.35;28.60;;;;;;;-3.70;87.77;101749.33;3579550;80;99420;-86
2022/03/02 07:45:36;;;;;;;55.17;23.27;;;;;;;-3.42;87.45;101748.28;3583872;81;99177;-87
2022/03/02 07:50:40;;;;;;;48.53;23.00;;;;;;;-3.09;87.05;101740.01;3561568;81;99214;-85
2022/03/02 07:55:44;;;;;;;48.07;21.73;;;;;;;-2.70;85.82;101740.07;3567670;81;99230;-85
2022/03/02 08:00:48;;;;;;;49.65;19.65;;;;;;;-2.37;85.29;101727.12;3556214;80;99344;-86
2022/03/02 08:05:49;;;;;;;60.73;26.77;;;;;;;-2.06;84.29;101728.92;3548839;80;26342;-86
2022/03/02 08:10:52;;;;;;;47.47;25.53;;;;;;;-1.86;83.76;101720.91;3538119;80;99157;-85
2022/03/02 08:15:53;;;;;;;60.25;26.70;;;;;;;-1.70;83.82;101720.45;3541982;82;99607;-84
2022/03/02 08:21:00;;;;;;;54.73;24.73;;;;;;;-1.46;83.40;101727.81;3516058;81;99688;-84
2022/03/02 08:26:02;;;;;;;;;;;;;;;-1.20;83.66;101712.47;3552865;82;99464;-84
2022/03/02 08:31:04;;;;;;;63.83;24.87;;;;;;;-0.91;82.47;101714.39;3545709;81;84901;-84
2022/03/02 08:36:06;;;;;;;55.47;25.87;;;;;;;-0.54;82.35;101701.93;3545569;82;31607;-84
2022/03/02 08:41:12;;;;;;;59.30;23.67;;;;;;;-0.21;81.86;101697.52;3544359;81;99176;-84
2022/03/02 08:46:14;;;;;;;;;;;;;;;0.16;80.25;101694.41;3546248;81;98849;-85
2022/03/02 08:51:15;;;;;;;43.13;20.57;;;;;;;0.54;78.53;101704.52;3549696;78;84850;-85
2022/03/02 08:56:17;;;;;;;42.57;19.53;;;;;;;0.88;79.36;101696.70;3550631;82;99313;-82
2022/03/02 09:01:19;;;;;;;28.00;13.62;;;;;;;1.75;75.92;101686.97;3556661;80;98773;-83
2022/03/02 09:06:21;;;;;;;46.00;19.93;;;;;;;1.75;75.92;101686.97;3560296;81;26768;-84
2022/03/02 09:11:22;;;;;;;36.73;17.47;;;;;;;2.21;74.84;101681.28;3573271;81;98938;-85
2022/03/02 09:16:23;;;;;;;38.03;18.33;;;;;;;2.99;77.24;101685.57;3563686;81;98667;-85
2022/03/02 09:21:26;;;;;;;35.50;18.20;;;;;;;3.57;74.41;101677.23;3556443;81;98884;-83
2022/03/02 09:26:26;;;;;;;29.65;14.47;;;;;;;4.50;75.23;101681.61;3556302;81;98852;-83
2022/03/02 09:31:28;;;;;;;19.53;10.30;;;;;;;5.22;71.24;101670.88;3563434;79;98848;-83
2022/03/02 09:36:38;;;;;;;30.93;14.83;;;;;;;5.65;66.71;101666.48;3554485;81;32112;-84
2022/03/02 09:42:02;;;;;;;37.63;16.90;;;;;;;6.53;68.12;101664.22;3545551;81;98958;-85
2022/03/02 09:47:07;;;;;;;27.58;14.78;;;;;;;7.29;66.80;101677.64;3527068;81;99099;-85
2022/03/02 09:52:10;;;;;;;31.70;14.07;;;;;;;7.87;62.42;101662.74;3550106;79;99100;-86
2022/03/02 09:57:11;;;;;;;28.73;14.20;;;;;;;8.34;62.26;101667.06;3568921;81;99158;-86
2022/03/02 10:02:17;;;;;;;33.27;15.57;;;;;;;8.74;59.05;101653.13;3508195;81;99160;-86
2022/03/02 10:07:28;;;;;;;26.83;15.77;;;;;;;9.20;59.52;101652.87;3543845;81;99527;-88
2022/03/02 10:12:31;;;;;;;30.17;14.80;;;;;;;9.69;56.79;101649.92;3547350;82;98571;-87
2022/03/02 10:17:37;;;;;;;28.67;15.00;;;;;;;10.17;55.84;101647.23;3547432;80;99136;-87
2022/03/02 10:22:52;;;;;;;31.45;15.35;;;;;;;10.46;54.15;101641.47;3557930;80;99458;-87
2022/03/02 10:28:05;;;;;;;30.48;15.78;;;;;;;10.91;54.12;101628.84;3556973;81;99705;-87
2022/03/02 10:33:23;;;;;;;27.77;15.08;;;;;;;11.08;52.51;101622.47;3526703;82;99584;-88
2022/03/02 10:38:56;;;;;;;35.68;15.25;;;;;;;11.31;50.42;101612.47;3551690;81;99461;-88
2022/03/02 10:44:00;;;;;;;25.17;13.45;;;;;;;11.64;51.22;101612.16;3511998;79;99765;-87
2022/03/02 10:49:20;;;;;;;27.98;13.58;;;;;;;11.49;48.41;101605.45;3560428;80;99127;-87
2022/03/02 10:54:24;;;;;;;30.05;15.80;;;;;;;11.59;47.44;101608.29;3544648;82;99142;-87
2022/03/02 10:59:26;;;;;;;25.97;14.73;;;;;;;11.49;47.44;101596.37;3568814;80;98315;-87
2022/03/02 11:04:30;;;;;;;26.95;14.68;;;;;;;11.70;47.74;101595.00;3544201;81;99481;-87
2022/03/02 11:09:34;;;;;;;24.75;14.13;;;;;;;11.86;47.03;101593.05;3579847;80;99238;-87
2022/03/02 11:14:35;;;;;;;29.87;15.95;;;;;;;11.94;46.08;101594.02;3546162;80;99211;-88
2022/03/02 11:19:45;;;;;;;35.43;16.57;;;;;;;11.88;45.39;101589.94;3532636;78;99425;-86
2022/03/02 11:24:47;;;;;;;30.70;17.23;;;;;;;11.65;46.07;101580.67;3564016;79;99166;-88
2022/03/02 11:29:48;;;;;;;31.07;16.80;;;;;;;11.54;44.79;101570.73;3570306;81;100441;-89
2022/03/02 11:34:51;;;;;;;26.77;15.67;;;;;;;11.37;45.81;101566.95;3571561;81;99351;-89
2022/03/02 11:39:52;;;;;;;28.12;14.43;;;;;;;11.07;45.10;101571.84;3533220;81;99483;-89
2022/03/02 11:44:57;;;;;;;27.63;16.40;;;;;;;10.96;45.14;101557.77;3558477;81;99253;-89
2022/03/02 11:49:58;;;;;;;29.18;15.93;;;;;;;10.84;45.65;101559.80;3542831;80;99534;-90
2022/03/02 11:55:06;;;;;;;34.63;16.67;;;;;;;10.59;45.91;101545.33;3488560;83;99197;-89
2022/03/02 12:00:24;;;;;;;29.95;16.37;;;;;;;10.61;45.82;101540.83;3447525;82;99698;-88
2022/03/02 12:05:32;;;;;;;35.63;17.90;;;;;;;10.16;45.62;101547.16;3459422;83;99275;-88
2022/03/02 12:10:38;;;;;;;33.38;18.90;;;;;;;10.05;45.70;101533.66;3443273;83;99344;-89
2022/03/02 12:15:49;;;;;;;30.97;18.57;;;;;;;10.06;45.40;101525.06;3445292;82;99061;-89
2022/03/02 12:20:57;;;;;;;30.32;16.90;;;;;;;9.78;44.30;101521.41;3456119;83;99468;-89
2022/03/02 12:26:02;;;;;;;27.87;16.83;;;;;;;9.49;45.60;101512.60;3458429;83;99511;-89
2022/03/02 12:31:12;;;;;;;32.13;15.87;;;;;;;9.62;47.61;101497.70;3458368;83;98945;-90
2022/03/02 12:36:15;;;;;;;27.62;15.85;;;;;;;9.60;46.58;101500.00;3463140;84;32336;-89
2022/03/02 12:41:16;;;;;;;28.87;16.70;;;;;;;9.45;46.59;101493.81;3453529;84;98857;-90
2022/03/02 12:46:18;;;;;;;28.90;17.17;;;;;;;9.31;46.66;101496.91;3476544;83;99052;-89
2022/03/02 12:51:21;;;;;;;27.30;15.68;;;;;;;9.16;46.30;101484.42;3451779;83;99225;-89
2022/03/02 12:56:23;;;;;;;28.47;15.40;;;;;;;8.94;47.39;101484.84;3441003;82;98963;-89
2022/03/02 13:01:26;;;;;;;26.13;15.80;;;;;;;8.77;47.16;101483.08;3450261;84;99642;-89
2022/03/02 13:06:31;;;;;;;30.72;15.78;;;;;;;8.76;47.61;101476.55;3475902;83;33818;-89
2022/03/02 13:11:31;;;;;;;32.93;16.30;;;;;;;8.53;46.84;101465.73;3465117;82;99164;-87
2022/03/02 13:16:39;;;;;;;34.83;18.10;;;;;;;8.30;46.98;101464.52;3460948;82;98684;-89
2022/03/02 13:21:40;;;;;;;27.50;14.85;;;;;;;8.35;46.71;101456.08;3445528;84;98963;-88
2022/03/02 13:27:08;;;;;;;29.17;15.77;;;;;;;8.18;47.50;101459.73;3473109;83;98786;-88
2022/03/02 13:32:08;;;;;;;28.92;15.38;;;;;;;8.10;48.13;101452.40;3460702;83;98850;-88
2022/03/02 13:37:09;;;;;;;26.43;14.83;;;;;;;8.04;48.04;101443.33;3430816;84;98793;-88
2022/03/02 13:42:25;;;;;;;27.03;14.80;;;;;;;7.90;48.62;101436.75;3457017;84;98477;-87
2022/03/02 13:47:26;;;;;;;31.23;15.57;;;;;;;7.91;49.08;101426.60;3469909;81;99103;-87
2022/03/02 13:52:33;;;;;;;26.48;14.53;;;;;;;7.85;47.74;101427.36;3459902;82;99077;-90
2022/03/02 13:57:34;;;;;;;24.23;14.70;;;;;;;7.66;47.75;101424.30;3455717;83;99280;-86
2022/03/02 14:02:36;;;;;;;26.13;14.27;;;;;;;7.54;49.41;101422.84;3448572;84;99058;-88
2022/03/02 14:07:39;;;;;;;24.05;13.55;;;;;;;7.48;48.43;101411.04;3440431;84;98921;-89
2022/03/02 14:12:52;;;;;;;30.80;14.78;;;;;;;7.25;48.13;101402.31;3437644;84;98546;-88
2022/03/02 14:17:53;;;;;;;26.62;14.03;;;;;;;7.30;49.04;101395.86;3440718;83;99268;-89
2022/03/02 14:23:09;;;;;;;25.70;13.22;;;;;;;7.24;50.07;101393.87;3434271;83;98891;-88
2022/03/02 14:28:14;;;;;;;26.87;12.60;;;;;;;7.15;48.69;101380.00;3435455;84;99257;-87
2022/03/02 14:33:21;;;;;;;25.77;12.90;;;;;;;7.07;49.42;101380.83;3403359;84;99159;-87
2022/03/02 14:38:22;;;;;;;23.62;13.85;;;;;;;7.00;49.42;101375.90;3435923;83;99045;-87
2022/03/02 14:43:23;;;;;;;22.90;11.53;;;;;;;6.94;48.47;101373.67;3433220;84;99525;-87
2022/03/02 14:48:31;;;;;;;23.57;12.63;;;;;;;6.75;49.62;101371.34;3418426;84;32666;-87
2022/03/02 14:53:35;;;;;;;25.90;13.78;;;;;;;6.67;49.82;101370.83;3432114;83;98953;-89
2022/03/02 14:58:46;;;;;;;27.05;13.55;;;;;;;6.53;50.54;101371.59;3437073;84;99083;-89
2022/03/02 15:03:57;;;;;;;24.85;13.55;;;;;;;6.42;50.29;101359.95;3430548;83;98841;-89
2022/03/02 15:09:10;;;;;;;25.40;14.18;;;;;;;6.31;50.38;101355.97;3467942;84;99412;-88
2022/03/02 15:19:43;;;;;;;25.77;13.32;;;;;;;6.02;51.21;101340.30;3541838;81;99188;-90
2022/03/02 15:24:52;;;;;;;25.57;13.23;;;;;;;5.95;51.46;101333.72;3552556;82;30442;-88
2022/03/02 15:29:57;;;;;;;28.12;13.83;;;;;;;5.89;52.68;101333.06;3534344;81;99058;-86
2022/03/02 15:35:00;;;;;;;35.17;17.03;;;;;;;5.78;52.17;101319.47;3548740;81;99157;-87
2022/03/02 15:40:11;;;;;;;26.40;14.43;;;;;;;5.72;52.92;101306.33;3538031;81;99254;-86
2022/03/02 15:45:25;;;;;;;22.80;12.80;;;;;;;5.60;51.83;101306.16;3546973;81;99179;-87
2022/03/02 15:50:34;;;;;;;27.80;14.10;;;;;;;5.41;52.62;101298.87;3531613;78;99224;-90
2022/03/02 15:55:45;;;;;;;24.70;14.10;;;;;;;5.38;53.30;101292.13;3542162;81;99249;-87
2022/03/02 16:00:49;;;;;;;25.10;13.63;;;;;;;5.25;53.65;101288.97;3534722;81;98838;-88
2022/03/02 16:05:54;;;;;;;24.80;13.35;;;;;;;5.18;53.76;101286.51;3558259;81;98691;-89
2022/03/02 16:11:18;;;;;;;26.55;13.03;;;;;;;5.04;53.65;101292.66;3562506;81;98782;-84
2022/03/02 16:16:19;;;;;;;25.43;14.58;;;;;;;4.94;54.66;101292.95;3566998;81;99088;-83
2022/03/02 16:21:22;;;;;;;28.53;15.60;;;;;;;4.85;55.23;101290.80;3570253;79;99222;-84
2022/03/02 16:26:40;;;;;;;31.37;15.33;;;;;;;4.77;55.66;101282.02;3556051;79;99158;-83
2022/03/02 16:31:37;;;;;;;31.82;16.80;;;;;;;4.58;56.05;101284.23;3551807;81;99100;-84
2022/03/02 16:36:45;;;;;;;30.57;16.50;;;;;;;4.41;56.37;101269.97;3564344;81;31632;-83
2022/03/02 16:41:46;;;;;;;30.60;15.83;;;;;;;4.22;56.09;101281.69;3576809;80;98876;-83
2022/03/02 16:46:47;;;;;;;40.83;21.70;;;;;;;3.98;57.30;101280.45;3568514;81;99005;-84
2022/03/02 16:51:48;;;;;;;40.87;22.70;;;;;;;3.77;57.75;101284.23;3565510;80;99094;-84
2022/03/02 16:56:49;;;;;;;39.47;22.57;;;;;;;3.60;57.54;101269.15;3582325;81;99121;-83
2022/03/02 17:01:50;;;;;;;40.00;22.63;;;;;;;3.49;58.39;101262.34;3560402;81;99054;-83
2022/03/02 17:06:51;;;;;;;37.13;19.83;;;;;;;3.24;58.44;101259.44;3546331;81;31639;-83
2022/03/02 17:11:52;;;;;;;44.48;22.58;;;;;;;2.97;58.92;101264.42;3540417;81;98847;-83
2022/03/02 17:16:53;;;;;;;50.17;25.03;;;;;;;2.78;60.00;101271.11;3556855;81;98912;-81
2022/03/02 17:21:54;;;;;;;72.23;31.57;;;;;;;2.62;60.69;101274.69;3531128;82;99267;-82
2022/03/02 17:26:56;;;;;;;67.67;33.10;;;;;;;2.45;61.20;101269.06;3553772;82;99337;-84
2022/03/02 17:31:57;;;;;;;63.43;29.90;;;;;;;2.26;61.83;101266.20;3551932;81;99210;-88
2022/03/02 17:36:58;;;;;;;65.47;28.67;;;;;;;2.08;62.28;101257.60;3556199;81;99189;-86
2022/03/02 17:41:59;;;;;;;72.37;32.10;;;;;;;1.86;62.65;101266.41;3552856;80;98533;-86
2022/03/02 17:47:05;;;;;;;67.13;32.07;;;;;;;1.67;63.12;101268.38;3526853;81;99134;-86
2022/03/02 17:52:06;;;;;;;70.30;32.57;;;;;;;1.49;63.75;101264.36;3541414;80;99220;-85
2022/03/02 17:57:07;;;;;;;68.80;30.90;;;;;;;1.35;63.96;101257.52;3553048;81;98849;-84
2022/03/02 18:02:08;;;;;;;71.67;32.17;;;;;;;1.13;63.72;101262.75;3542784;81;99280;-85
2022/03/02 18:07:11;;;;;;;61.53;27.70;;;;;;;0.93;64.87;101259.55;3570250;81;99286;-84
2022/03/02 18:12:12;;;;;;;55.20;27.02;;;;;;;0.78;64.97;101258.39;3553715;81;99078;-84
2022/03/02 18:17:13;;;;;;;59.77;28.97;;;;;;;0.63;65.55;101245.87;3570881;81;99142;-86
2022/03/02 18:22:14;;;;;;;86.67;37.10;;;;;;;0.52;66.23;101253.05;3554948;80;99278;-85
2022/03/02 18:27:15;;;;;;;122.33;54.63;;;;;;;0.37;66.46;101246.46;3564249;81;99550;-90
2022/03/02 18:32:17;;;;;;;128.67;55.13;;;;;;;0.26;66.43;101246.33;3551052;80;99348;-88
2022/03/02 18:37:18;;;;;;;144.60;54.83;;;;;;;0.13;67.30;101246.47;3575630;80;99216;-90
2022/03/02 18:42:19;;;;;;;104.00;45.35;;;;;;;0.02;67.43;101234.71;3551538;81;98954;-89
2022/03/02 18:47:21;;;;;;;101.23;46.17;;;;;;;-0.08;68.16;101241.58;3555184;81;99325;-89
2022/03/02 18:52:23;;;;;;;67.10;32.77;;;;;;;-0.20;68.33;101243.31;3543476;81;99463;-88
2022/03/02 18:57:24;;;;;;;70.17;32.87;;;;;;;-0.32;68.61;101248.05;3558252;81;99243;-87
2022/03/02 19:02:25;;;;;;;79.37;36.70;;;;;;;-0.41;69.45;101238.40;3541338;81;99040;-87
2022/03/02 19:07:27;;;;;;;74.40;33.63;;;;;;;-0.47;69.72;101236.84;3532637;80;99117;-88
2022/03/02 19:12:28;;;;;;;65.90;31.83;;;;;;;-0.57;70.33;101239.63;3521115;81;99172;-87
2022/03/02 19:17:29;;;;;;;58.73;30.33;;;;;;;-0.66;70.03;101240.52;3524190;82;99247;-89
2022/03/02 19:22:34;;;;;;;65.33;32.33;;;;;;;-0.76;70.80;101237.37;3451145;83;99363;-89
2022/03/02 19:27:36;;;;;;;76.20;34.90;;;;;;;-0.81;70.71;101234.70;3444831;84;99489;-89
2022/03/02 19:32:39;;;;;;;72.87;34.90;;;;;;;-0.89;71.11;101227.75;3537420;80;99294;-88
2022/03/02 19:37:45;;;;;;;78.47;37.43;;;;;;;-0.97;70.94;101225.62;3529126;80;99689;-88
2022/03/02 19:42:46;;;;;;;71.67;36.83;;;;;;;-1.05;71.46;101236.48;3520038;82;98968;-91
2022/03/02 19:47:58;;;;;;;79.05;36.48;;;;;;;-1.11;71.81;101226.80;3530663;82;97982;-93
2022/03/02 19:53:04;;;;;;;76.53;38.05;;;;;;;-1.17;72.07;101230.63;3519731;80;99373;-93
2022/03/02 19:58:06;;;;;;;58.33;28.40;;;;;;;-1.21;72.67;101223.37;3526334;82;98800;-92
2022/03/02 20:03:07;;;;;;;82.53;40.13;;;;;;;-1.27;72.58;101224.50;3525114;81;99284;-93
2022/03/02 20:08:08;;;;;;;94.90;42.77;;;;;;;-1.36;71.81;101224.81;3518271;81;99479;-95
2022/03/02 20:13:09;;;;;;;89.73;44.47;;;;;;;-1.47;72.50;101222.72;3510912;82;98945;-94
2022/03/02 20:18:10;;;;;;;81.77;39.77;;;;;;;-1.53;72.28;101221.11;3518993;82;31591;-94
2022/03/02 20:23:12;;;;;;;69.73;35.57;;;;;;;-1.62;72.94;101223.33;3510016;82;99479;-93
2022/03/02 20:28:16;;;;;;;71.37;35.40;;;;;;;-1.65;73.60;101227.94;3516157;82;99537;-93
2022/03/02 20:33:19;;;;;;;74.30;36.47;;;;;;;-1.70;73.43;101223.91;3512045;81;99395;-92
2022/03/02 20:38:24;;;;;;;79.10;37.67;;;;;;;-1.76;74.07;101221.77;3517122;82;99564;-94
2022/03/02 20:43:26;;;;;;;80.00;39.43;;;;;;;-1.83;73.95;101212.34;3515988;81;99711;-93
2022/03/02 20:48:27;;;;;;;78.03;39.47;;;;;;;-1.86;74.37;101215.61;3523217;82;26360;-94
2022/03/02 20:53:28;;;;;;;102.37;46.33;;;;;;;-1.89;75.22;101221.02;3393029;85;98786;-90
2022/03/02 20:58:28;;;;;;;98.80;46.20;;;;;;;-1.93;74.13;101215.91;3455173;84;98444;-93
2022/03/02 21:03:30;;;;;;;115.17;55.90;;;;;;;-2.03;74.24;101217.84;3508617;82;99064;-93
2022/03/02 21:08:31;;;;;;;127.27;56.67;;;;;;;-2.08;75.12;101197.62;3463185;82;99325;-92
2022/03/02 21:13:32;;;;;;;129.03;56.87;;;;;;;-2.15;74.91;101197.09;3460432;82;99307;-92
2022/03/02 21:18:34;;;;;;;145.43;58.30;;;;;;;-2.20;74.83;101195.78;3470378;82;29934;-92
2022/03/02 21:23:37;;;;;;;120.30;50.70;;;;;;;-2.23;75.71;101191.75;3459852;83;100098;-90
2022/03/02 21:28:38;;;;;;;97.60;41.00;;;;;;;-2.26;76.07;101186.89;3396439;84;99808;-85
2022/03/02 21:33:39;;;;;;;92.50;41.17;;;;;;;-2.30;75.35;101193.90;3522376;81;99246;-86
2022/03/02 21:38:41;;;;;;;94.67;42.27;;;;;;;-2.38;75.42;101185.56;3531099;81;99456;-86
2022/03/02 21:43:42;;;;;;;94.60;41.67;;;;;;;-2.40;76.19;101180.44;3525058;81;99780;-86
2022/03/02 21:48:42;;;;;;;101.67;43.97;;;;;;;-2.45;75.72;101181.01;3531372;82;31659;-86
2022/03/02 21:53:43;;;;;;;102.23;45.13;;;;;;;-2.51;75.61;101167.28;3520308;82;99206;-87
2022/03/02 21:58:44;;;;;;;105.23;44.90;;;;;;;-2.59;76.55;101174.03;3531095;82;99174;-87
2022/03/02 22:03:45;;;;;;;121.23;49.77;;;;;;;-2.59;76.55;101174.03;3528975;81;99296;-86
2022/03/02 22:08:49;;;;;;;102.33;45.17;;;;;;;-2.61;77.02;101165.95;3537329;81;99693;-86
2022/03/02 22:13:50;;;;;;;110.30;51.37;;;;;;;-2.66;76.66;101170.00;3547351;80;99703;-87
2022/03/02 22:18:50;;;;;;;122.60;49.10;;;;;;;-2.69;77.71;101163.27;3563034;82;32164;-87
2022/03/02 22:23:51;;;;;;;125.33;54.00;;;;;;;-2.72;77.63;101164.34;3557736;81;99418;-87
2022/03/02 22:28:52;;;;;;;120.50;54.57;;;;;;;-2.73;77.91;101166.22;3557637;81;99370;-86
2022/03/02 22:33:53;;;;;;;131.20;55.43;;;;;;;-2.77;77.65;101161.13;3541085;82;101004;-86
2022/03/02 22:38:54;;;;;;;114.43;50.20;;;;;;;-2.81;78.08;101156.54;3558933;81;99472;-86
2022/03/02 22:43:55;;;;;;;99.63;43.47;;;;;;;-2.83;77.39;101160.05;3541944;81;99200;-87
2022/03/02 22:48:55;;;;;;;109.70;48.80;;;;;;;-2.86;77.77;101160.58;3552271;82;99391;-85
2022/03/02 22:54:00;;;;;;;110.63;47.83;;;;;;;-2.89;77.77;101154.41;3545712;80;99119;-86
2022/03/02 22:58:59;;;;;;;113.10;48.83;;;;;;;-2.96;78.03;101159.27;3540252;81;99111;-87
2022/03/02 23:04:00;;;;;;;111.60;48.83;;;;;;;-2.96;78.42;101161.96;3539293;82;99818;-87
2022/03/02 23:14:15;;;;;;;109.60;48.03;;;;;;;-3.03;78.28;101152.80;3464989;82;99849;-87